Sombra, Canada
Current Conditions -  °F | °C
As of 11:56 AM on Saturday 25 Oct 2014 (Local Time) from KPHN Reporting Station
Overcast Overcast  
Wind Chill: 57°   Ceiling: 1600
Heat Index: 57°   Visibility: 7mi
Dew Point: 52°   Wind: 10mph
Humidity: 82%   Direction: 290°WNW
Pressure: 29.77"   Gusts: 22mph
Location:  42.72°N, 82.48°W
Report Text: KPHN 251556Z AUTO 29009G19KT 7SM OVC016 14/11 A2977 RMK AO2
Loading
Personal Weather Stations






























Interactive Weather Map
Tropical Storm Tracking
New forecast layout! Learn more

10-Day Weather Forecast

Advertisements
Track Severe Weather on mobile